Time;durP1;ratioP1;P1;durP2;ratioP2;P2;SDS_P1;SDS_P2;PMS_P1;PMS_P2;Temp;Humidity;BMP_temperature;BMP_pressure;BME280_temperature;BME280_humidity;BME280_pressure;Samples;Min_cycle;Max_cycle;Signal;HPM_P1;HPM_P2
2021/10/15 00:01:24;;;;;;;;;29.50;28.25;;;;;;;;4995300;28;45834;-70
2021/10/15 00:03:50;;;;;;;;;35.25;30.25;;;;;;;;5010459;28;45422;-68
2021/10/15 00:06:15;;;;;;;;;39.25;31.75;;;;;;;;4995972;28;45506;-75
2021/10/15 00:08:40;;;;;;;;;36.25;32.00;;;;;;;;4995697;28;45429;-68
2021/10/15 00:11:05;;;;;;;;;34.75;28.75;;;;;;;;4995243;28;45426;-70
2021/10/15 00:13:31;;;;;;;;;31.50;28.25;;;;;;;;5010443;28;45421;-71
2021/10/15 00:15:56;;;;;;;;;31.00;29.75;;;;;;;;4998655;28;45277;-77
2021/10/15 00:18:21;;;;;;;;;30.25;27.75;;;;;;;;5014515;28;45699;-77
2021/10/15 00:20:46;;;;;;;;;33.50;28.75;;;;;;;;5014840;28;45488;-70
2021/10/15 00:23:12;;;;;;;;;35.75;32.25;;;;;;;;5013531;28;45490;-66
2021/10/15 00:25:37;;;;;;;;;37.00;31.00;;;;;;;;5011549;28;45454;-72
2021/10/15 00:28:02;;;;;;;;;37.00;30.50;;;;;;;;5013092;28;46243;-74
2021/10/15 00:30:27;;;;;;;;;35.00;30.50;;;;;;;;5013166;28;45414;-73
2021/10/15 00:32:53;;;;;;;;;45.00;33.50;;;;;;;;5013039;28;45558;-73
2021/10/15 00:35:18;;;;;;;;;31.50;27.50;;;;;;;;5013033;28;45441;-74
2021/10/15 00:37:47;;;;;;;;;35.25;29.75;;;;;;;;5012472;28;45449;-74
2021/10/15 00:40:12;;;;;;;;;33.00;28.75;;;;;;;;5012672;28;45969;-69
2021/10/15 00:42:37;;;;;;;;;35.00;30.75;;;;;;;;5012855;28;46065;-72
2021/10/15 00:45:03;;;;;;;;;41.50;33.50;;;;;;;;5013239;28;45465;-66
2021/10/15 00:47:29;;;;;;;;;36.50;30.75;;;;;;;;5011560;28;48744;-69
2021/10/15 00:49:54;;;;;;;;;37.50;32.50;;;;;;;;5012931;28;45344;-72
2021/10/15 00:52:19;;;;;;;;;34.25;30.00;;;;;;;;5011700;28;45452;-71
2021/10/15 00:54:46;;;;;;;;;31.00;28.75;;;;;;;;5011875;28;45442;-76
2021/10/15 00:57:13;;;;;;;;;33.00;29.25;;;;;;;;5014128;28;45614;-70
2021/10/15 00:59:40;;;;;;;;;30.75;27.50;;;;;;;;5015366;28;46178;-75
2021/10/15 01:02:05;;;;;;;;;35.00;30.75;;;;;;;;5016338;28;45424;-71
2021/10/15 01:04:30;;;;;;;;;13.50;10.25;;;;;;;;5016914;28;45566;-72
2021/10/15 01:06:55;;;;;;;;;36.25;30.75;;;;;;;;5015776;28;48264;-73
2021/10/15 01:09:23;;;;;;;;;33.75;28.50;;;;;;;;5015827;28;45321;-67
2021/10/15 01:11:49;;;;;;;;;33.50;30.75;;;;;;;;5017946;28;45447;-69
2021/10/15 01:14:15;;;;;;;;;33.75;30.25;;;;;;;;5021401;28;45711;-69
2021/10/15 01:16:41;;;;;;;;;39.50;33.50;;;;;;;;5022352;28;46652;-68
2021/10/15 01:19:06;;;;;;;;;40.00;33.75;;;;;;;;5020398;28;45482;-72
2021/10/15 01:21:32;;;;;;;;;33.00;28.75;;;;;;;;5020941;28;45434;-70
2021/10/15 01:23:58;;;;;;;;;34.00;30.00;;;;;;;;5019115;28;45431;-71
2021/10/15 01:26:23;;;;;;;;;35.00;30.25;;;;;;;;5019446;28;45552;-71
2021/10/15 01:28:48;;;;;;;;;39.25;32.00;;;;;;;;5019346;28;45493;-70
2021/10/15 01:31:14;;;;;;;;;33.00;31.50;;;;;;;;5019276;28;45492;-75
2021/10/15 01:33:39;;;;;;;;;34.25;29.25;;;;;;;;5017893;28;45339;-73
2021/10/15 01:36:04;;;;;;;;;31.00;30.00;;;;;;;;5018132;28;45639;-74
2021/10/15 01:38:29;;;;;;;;;35.75;30.00;;;;;;;;5017412;28;45290;-69
2021/10/15 01:40:55;;;;;;;;;34.25;28.75;;;;;;;;5017465;28;45732;-72
2021/10/15 01:43:25;;;;;;;;;28.00;27.75;;;;;;;;5017242;28;45533;-67
2021/10/15 01:45:50;;;;;;;;;31.50;29.00;;;;;;;;5016610;28;45640;-74
2021/10/15 01:48:16;;;;;;;;;31.25;29.75;;;;;;;;5015525;28;45790;-71
2021/10/15 01:50:41;;;;;;;;;31.25;26.50;;;;;;;;5017070;28;45772;-71
2021/10/15 01:53:06;;;;;;;;;32.25;28.50;;;;;;;;5017310;28;45528;-69
2021/10/15 01:55:31;;;;;;;;;28.75;23.50;;;;;;;;5016821;28;45404;-73
2021/10/15 01:57:56;;;;;;;;;33.50;29.75;;;;;;;;5016899;28;45446;-70
2021/10/15 02:00:22;;;;;;;;;37.00;30.00;;;;;;;;5016801;28;45499;-72
2021/10/15 02:02:47;;;;;;;;;32.75;30.00;;;;;;;;5015688;28;45312;-70
2021/10/15 02:05:15;;;;;;;;;32.75;29.25;;;;;;;;5016659;28;46221;-71
2021/10/15 02:07:40;;;;;;;;;25.75;23.25;;;;;;;;5016601;28;45344;-71
2021/10/15 02:10:06;;;;;;;;;36.25;28.75;;;;;;;;5016366;28;45235;-66
2021/10/15 02:12:31;;;;;;;;;30.00;26.00;;;;;;;;5015800;28;45328;-67
2021/10/15 02:14:57;;;;;;;;;34.00;31.25;;;;;;;;5016598;28;45476;-67
2021/10/15 02:17:22;;;;;;;;;27.75;25.50;;;;;;;;5016662;28;45234;-66
2021/10/15 02:19:47;;;;;;;;;33.50;26.75;;;;;;;;5016614;28;45358;-67
2021/10/15 02:22:12;;;;;;;;;29.00;27.50;;;;;;;;5016995;28;45252;-66
2021/10/15 02:24:38;;;;;;;;;32.75;28.00;;;;;;;;5016707;28;45503;-70
2021/10/15 02:27:03;;;;;;;;;32.00;28.00;;;;;;;;5016794;28;45312;-67
2021/10/15 02:29:29;;;;;;;;;33.25;28.00;;;;;;;;5016611;28;45189;-70
2021/10/15 02:31:54;;;;;;;;;26.00;26.00;;;;;;;;5016883;28;45468;-71
2021/10/15 02:34:19;;;;;;;;;30.25;28.50;;;;;;;;5016159;28;46176;-70
2021/10/15 02:36:45;;;;;;;;;30.25;27.75;;;;;;;;5016164;28;45392;-72
2021/10/15 02:39:10;;;;;;;;;31.75;29.00;;;;;;;;5014975;28;45381;-69
2021/10/15 02:41:37;;;;;;;;;34.00;28.75;;;;;;;;5016707;28;45492;-75
2021/10/15 02:44:10;;;;;;;;;30.50;26.00;;;;;;;;5014437;28;45948;-76
2021/10/15 02:46:35;;;;;;;;;28.25;25.50;;;;;;;;5014593;28;45443;-75
2021/10/15 02:49:01;;;;;;;;;34.00;30.25;;;;;;;;5015879;28;45418;-73
2021/10/15 02:51:26;;;;;;;;;33.75;27.25;;;;;;;;5015903;28;45319;-69
2021/10/15 02:53:52;;;;;;;;;30.25;28.00;;;;;;;;5015846;28;46216;-71
2021/10/15 02:56:17;;;;;;;;;30.25;25.50;;;;;;;;5016293;28;45442;-71
2021/10/15 02:58:42;;;;;;;;;33.75;28.50;;;;;;;;5016420;28;45373;-73
2021/10/15 03:01:08;;;;;;;;;31.75;29.00;;;;;;;;5015767;28;45432;-69
2021/10/15 03:03:33;;;;;;;;;27.50;25.25;;;;;;;;5016431;28;46088;-68
2021/10/15 03:05:58;;;;;;;;;27.75;25.75;;;;;;;;5014463;28;45402;-74
2021/10/15 03:08:23;;;;;;;;;34.50;26.75;;;;;;;;5016061;28;45482;-73
2021/10/15 03:10:48;;;;;;;;;31.00;27.25;;;;;;;;5016203;28;45571;-74
2021/10/15 03:13:14;;;;;;;;;30.00;28.50;;;;;;;;5014068;28;48159;-72
2021/10/15 03:15:39;;;;;;;;;31.25;28.75;;;;;;;;5016068;28;45459;-74
2021/10/15 03:18:04;;;;;;;;;33.50;30.00;;;;;;;;5016428;28;45379;-70
2021/10/15 03:20:29;;;;;;;;;29.50;26.25;;;;;;;;5018316;28;45475;-69
2021/10/15 03:22:54;;;;;;;;;29.50;28.00;;;;;;;;5016867;28;47196;-69
2021/10/15 03:25:20;;;;;;;;;32.25;28.25;;;;;;;;5016654;28;45373;-70
2021/10/15 03:27:45;;;;;;;;;32.50;28.00;;;;;;;;5016482;28;45375;-72
2021/10/15 03:30:10;;;;;;;;;32.00;29.00;;;;;;;;5015032;28;45258;-73
2021/10/15 03:32:35;;;;;;;;;34.50;30.50;;;;;;;;5015793;28;46927;-72
2021/10/15 03:35:01;;;;;;;;;35.50;29.00;;;;;;;;5014389;28;45873;-71
2021/10/15 03:37:26;;;;;;;;;30.25;28.00;;;;;;;;5015600;28;45407;-74
2021/10/15 03:39:51;;;;;;;;;36.00;27.25;;;;;;;;5015718;28;45782;-72
2021/10/15 03:42:17;;;;;;;;;33.00;30.00;;;;;;;;5014939;28;46481;-70
2021/10/15 03:44:42;;;;;;;;;37.50;31.00;;;;;;;;5014045;28;45455;-67
2021/10/15 03:47:07;;;;;;;;;33.75;29.00;;;;;;;;5015516;28;45415;-71
2021/10/15 03:49:32;;;;;;;;;35.50;32.00;;;;;;;;5015453;28;45153;-68
2021/10/15 03:51:58;;;;;;;;;40.00;34.00;;;;;;;;5013813;28;46679;-71
2021/10/15 03:54:23;;;;;;;;;45.50;35.50;;;;;;;;5015114;28;45432;-72
2021/10/15 03:56:48;;;;;;;;;36.00;32.25;;;;;;;;5013849;28;45344;-71
2021/10/15 03:59:14;;;;;;;;;45.25;36.00;;;;;;;;5015132;28;45339;-71
2021/10/15 04:01:39;;;;;;;;;44.75;34.75;;;;;;;;5015222;28;46502;-72
2021/10/15 04:04:04;;;;;;;;;45.25;36.50;;;;;;;;5015074;28;45364;-73
2021/10/15 04:06:29;;;;;;;;;45.00;37.00;;;;;;;;5015221;28;45565;-69
2021/10/15 04:08:55;;;;;;;;;48.50;39.00;;;;;;;;5015095;28;45530;-67
2021/10/15 04:11:20;;;;;;;;;46.25;37.50;;;;;;;;5014739;28;45645;-71
2021/10/15 04:13:45;;;;;;;;;46.75;37.50;;;;;;;;5014639;28;45413;-72
2021/10/15 04:16:10;;;;;;;;;43.75;35.50;;;;;;;;5014945;28;45325;-70
2021/10/15 04:18:36;;;;;;;;;47.75;37.50;;;;;;;;5013617;28;45166;-75
2021/10/15 04:21:01;;;;;;;;;45.50;38.00;;;;;;;;5013313;28;48013;-74
2021/10/15 04:23:26;;;;;;;;;47.25;39.00;;;;;;;;5014656;28;45301;-77
2021/10/15 04:25:52;;;;;;;;;43.00;36.00;;;;;;;;5014788;28;45349;-77
2021/10/15 04:28:18;;;;;;;;;43.75;35.00;;;;;;;;5015029;28;45467;-72
2021/10/15 04:30:44;;;;;;;;;41.50;36.25;;;;;;;;5014976;28;45324;-67
2021/10/15 04:33:09;;;;;;;;;46.75;36.50;;;;;;;;5018220;28;45323;-76
2021/10/15 04:35:34;;;;;;;;;43.75;35.25;;;;;;;;5021837;28;45817;-66
2021/10/15 04:38:00;;;;;;;;;42.00;34.75;;;;;;;;5023074;28;45450;-68
2021/10/15 04:40:25;;;;;;;;;38.25;33.00;;;;;;;;5021272;28;45329;-68
2021/10/15 04:42:50;;;;;;;;;45.25;36.25;;;;;;;;5019811;28;45292;-68
2021/10/15 04:45:15;;;;;;;;;44.25;35.75;;;;;;;;5018871;28;45236;-66
2021/10/15 04:47:41;;;;;;;;;41.50;33.50;;;;;;;;5018988;28;45531;-65
2021/10/15 04:50:06;;;;;;;;;47.00;36.00;;;;;;;;5018130;28;45197;-70
2021/10/15 04:52:31;;;;;;;;;47.00;37.50;;;;;;;;5017832;28;45351;-74
2021/10/15 04:54:57;;;;;;;;;45.00;35.75;;;;;;;;5018055;28;45287;-69
2021/10/15 04:57:22;;;;;;;;;42.75;36.25;;;;;;;;5016590;28;45548;-72
2021/10/15 04:59:47;;;;;;;;;44.00;35.50;;;;;;;;5017434;28;45348;-73
2021/10/15 05:02:12;;;;;;;;;44.50;36.25;;;;;;;;5017912;28;45331;-75
2021/10/15 05:04:39;;;;;;;;;44.00;34.25;;;;;;;;5017722;28;45272;-71
2021/10/15 05:07:05;;;;;;;;;43.50;36.75;;;;;;;;5018250;28;45344;-71
2021/10/15 05:11:56;;;;;;;;;41.25;34.75;;;;;;;;5017295;28;45459;-68
2021/10/15 05:14:21;;;;;;;;;46.00;36.50;;;;;;;;5017537;28;45364;-74
2021/10/15 05:16:46;;;;;;;;;40.00;35.25;;;;;;;;5017950;28;45406;-71
2021/10/15 05:19:12;;;;;;;;;43.50;36.75;;;;;;;;5017692;28;46793;-75
2021/10/15 05:21:38;;;;;;;;;44.75;35.25;;;;;;;;5017759;28;45483;-74
2021/10/15 05:24:03;;;;;;;;;49.00;38.00;;;;;;;;5017928;28;45453;-76
2021/10/15 05:26:29;;;;;;;;;42.25;35.25;;;;;;;;5017562;28;45300;-74
2021/10/15 05:28:54;;;;;;;;;39.75;34.00;;;;;;;;5016441;28;46938;-74
2021/10/15 05:31:19;;;;;;;;;44.00;36.25;;;;;;;;5017442;28;45477;-73
2021/10/15 05:33:44;;;;;;;;;46.25;37.00;;;;;;;;5017453;28;45404;-73
2021/10/15 05:36:09;;;;;;;;;44.75;35.75;;;;;;;;5017779;28;45281;-70
2021/10/15 05:38:35;;;;;;;;;44.25;34.75;;;;;;;;5015985;28;48599;-74
2021/10/15 05:41:00;;;;;;;;;48.00;36.75;;;;;;;;5017453;28;45222;-75
2021/10/15 05:43:25;;;;;;;;;46.50;35.75;;;;;;;;5015799;28;45309;-71
2021/10/15 05:45:50;;;;;;;;;44.25;36.50;;;;;;;;5017606;28;45542;-69
2021/10/15 05:48:16;;;;;;;;;43.75;37.00;;;;;;;;5017041;28;45467;-70
2021/10/15 05:50:42;;;;;;;;;38.75;33.00;;;;;;;;5017408;28;45287;-69
2021/10/15 05:53:11;;;;;;;;;48.50;39.00;;;;;;;;5015977;28;45355;-71
2021/10/15 05:55:57;;;;;;;;;43.75;37.00;;;;;;;;5017597;28;45419;-67
2021/10/15 06:01:05;;;;;;;;;47.50;38.50;;;;;;;;5016658;28;45358;-72
2021/10/15 06:03:30;;;;;;;;;43.25;35.75;;;;;;;;5017237;28;45362;-78
2021/10/15 06:16:36;;;;;;;;;41.50;35.00;;;;;;;;5018063;28;45169;-73
2021/10/15 06:19:07;;;;;;;;;45.75;36.00;;;;;;;;5019976;28;45470;-66
2021/10/15 06:21:33;;;;;;;;;44.75;35.50;;;;;;;;5026697;28;45523;-73
2021/10/15 06:23:59;;;;;;;;;49.50;37.75;;;;;;;;5029987;28;45343;-66
2021/10/15 06:26:24;;;;;;;;;44.00;38.00;;;;;;;;5030700;28;45201;-83
2021/10/15 06:28:49;;;;;;;;;45.25;37.25;;;;;;;;5029174;28;45210;-74
2021/10/15 06:31:15;;;;;;;;;51.50;39.50;;;;;;;;5026882;28;45497;-77
2021/10/15 06:33:40;;;;;;;;;47.50;39.25;;;;;;;;5028796;28;45367;-73
2021/10/15 06:36:05;;;;;;;;;48.75;37.00;;;;;;;;5028897;28;45569;-80
2021/10/15 06:38:31;;;;;;;;;48.50;40.00;;;;;;;;5023337;28;45475;-75
2021/10/15 06:40:56;;;;;;;;;55.25;41.75;;;;;;;;5025130;28;45435;-72
2021/10/15 06:43:21;;;;;;;;;50.75;38.00;;;;;;;;5025077;28;45263;-78
2021/10/15 06:45:47;;;;;;;;;49.75;37.75;;;;;;;;5023666;28;45434;-82
2021/10/15 06:48:12;;;;;;;;;48.00;38.00;;;;;;;;5022930;28;45292;-78
2021/10/15 06:50:37;;;;;;;;;44.50;37.00;;;;;;;;5024541;28;45332;-80
2021/10/15 06:53:09;;;;;;;;;48.00;36.75;;;;;;;;5029482;28;44791;-86
2021/10/15 06:55:34;;;;;;;;;43.00;35.00;;;;;;;;5024777;28;45323;-82
2021/10/15 06:58:00;;;;;;;;;47.75;39.75;;;;;;;;5026774;28;45431;-80
2021/10/15 07:00:25;;;;;;;;;46.75;38.50;;;;;;;;5027445;28;45338;-82
2021/10/15 07:02:50;;;;;;;;;48.00;40.00;;;;;;;;5028174;28;45339;-82
2021/10/15 07:05:15;;;;;;;;;48.50;38.75;;;;;;;;5022903;28;45349;-72
2021/10/15 07:07:41;;;;;;;;;45.00;36.75;;;;;;;;5022814;28;45343;-75
2021/10/15 07:10:07;;;;;;;;;50.50;39.00;;;;;;;;5022336;28;45331;-71
2021/10/15 07:12:39;;;;;;;;;50.50;39.25;;;;;;;;5017027;28;45272;-73
2021/10/15 07:15:05;;;;;;;;;48.50;40.00;;;;;;;;5015057;28;45620;-73
2021/10/15 07:17:31;;;;;;;;;48.00;36.25;;;;;;;;5015532;28;45454;-72
2021/10/15 07:19:56;;;;;;;;;50.00;38.50;;;;;;;;5019294;28;45320;-76
2021/10/15 07:22:21;;;;;;;;;49.75;39.75;;;;;;;;5034454;28;45280;-74
2021/10/15 07:24:46;;;;;;;;;43.50;34.75;;;;;;;;5033981;28;45047;-73
2021/10/15 07:27:12;;;;;;;;;51.25;39.50;;;;;;;;5017593;28;47154;-76
2021/10/15 07:29:37;;;;;;;;;48.25;40.00;;;;;;;;5018000;28;45364;-71
2021/10/15 07:32:03;;;;;;;;;45.50;37.00;;;;;;;;5014779;28;45404;-72
2021/10/15 07:34:28;;;;;;;;;50.75;41.25;;;;;;;;5014823;28;45564;-72
2021/10/15 07:36:53;;;;;;;;;46.50;39.00;;;;;;;;5016036;28;45661;-72
2021/10/15 07:39:18;;;;;;;;;49.00;40.50;;;;;;;;5015409;28;45421;-75
2021/10/15 07:41:45;;;;;;;;;48.75;39.25;;;;;;;;5016939;28;45308;-77
2021/10/15 07:44:11;;;;;;;;;46.50;39.00;;;;;;;;5016006;28;45491;-72
2021/10/15 07:46:36;;;;;;;;;50.50;40.75;;;;;;;;5015609;28;45550;-74
2021/10/15 07:49:02;;;;;;;;;53.25;43.25;;;;;;;;5015530;28;45261;-71
2021/10/15 07:51:27;;;;;;;;;51.75;40.75;;;;;;;;5015570;28;45420;-71
2021/10/15 07:53:53;;;;;;;;;44.25;36.75;;;;;;;;5016175;28;45586;-68
2021/10/15 07:56:18;;;;;;;;;48.25;39.75;;;;;;;;5015686;28;46107;-72
2021/10/15 07:58:43;;;;;;;;;53.00;44.00;;;;;;;;5016626;28;45221;-75
2021/10/15 08:01:08;;;;;;;;;53.00;42.25;;;;;;;;5017327;28;45398;-70
2021/10/15 08:03:34;;;;;;;;;53.75;42.25;;;;;;;;5018986;28;45214;-73
2021/10/15 08:05:59;;;;;;;;;49.75;39.50;;;;;;;;5018769;28;47224;-74
2021/10/15 08:08:24;;;;;;;;;47.50;38.00;;;;;;;;5020472;28;45376;-72
2021/10/15 08:10:50;;;;;;;;;47.00;38.75;;;;;;;;5019647;28;45531;-73
2021/10/15 08:13:15;;;;;;;;;50.25;41.50;;;;;;;;5019147;28;45363;-72
2021/10/15 08:15:40;;;;;;;;;48.00;37.50;;;;;;;;5019062;28;46373;-73
2021/10/15 08:18:05;;;;;;;;;49.25;39.50;;;;;;;;5017673;28;45324;-70
2021/10/15 08:20:31;;;;;;;;;53.50;41.75;;;;;;;;5018987;28;45333;-70
2021/10/15 08:22:56;;;;;;;;;47.75;39.00;;;;;;;;5019127;28;45375;-70
2021/10/15 08:25:21;;;;;;;;;34.50;33.25;;;;;;;;5019475;28;46009;-71
2021/10/15 08:27:46;;;;;;;;;47.25;38.75;;;;;;;;5019051;28;45454;-73
2021/10/15 08:30:12;;;;;;;;;49.00;38.75;;;;;;;;5017772;28;45508;-75
2021/10/15 08:32:37;;;;;;;;;47.00;38.50;;;;;;;;5018990;28;45598;-68
2021/10/15 08:35:05;;;;;;;;;56.75;43.25;;;;;;;;5018699;28;46150;-71
2021/10/15 08:37:30;;;;;;;;;50.75;40.25;;;;;;;;5018719;28;45426;-73
2021/10/15 08:39:57;;;;;;;;;44.50;38.25;;;;;;;;5019011;28;45381;-74
2021/10/15 08:42:22;;;;;;;;;48.50;41.00;;;;;;;;5018926;28;45494;-72
2021/10/15 08:44:48;;;;;;;;;50.00;41.50;;;;;;;;5016915;28;47472;-71
2021/10/15 08:47:14;;;;;;;;;51.75;41.50;;;;;;;;5017490;28;45431;-72
2021/10/15 08:49:40;;;;;;;;;49.00;40.75;;;;;;;;5018720;28;45240;-77
2021/10/15 08:52:05;;;;;;;;;46.75;37.50;;;;;;;;5018560;28;45199;-74
2021/10/15 08:54:32;;;;;;;;;52.00;41.75;;;;;;;;5018273;28;45381;-74
2021/10/15 08:56:57;;;;;;;;;41.50;35.50;;;;;;;;5018629;28;45428;-70
2021/10/15 08:59:35;;;;;;;;;45.25;37.50;;;;;;;;5018366;28;45363;-77
2021/10/15 09:02:08;;;;;;;;;40.50;33.75;;;;;;;;5018635;28;45441;-72
2021/10/15 09:04:41;;;;;;;;;40.75;34.50;;;;;;;;5016422;28;48060;-72
2021/10/15 09:07:14;;;;;;;;;41.00;35.25;;;;;;;;5018106;28;45347;-74
2021/10/15 09:09:39;;;;;;;;;44.75;36.25;;;;;;;;5016960;28;45260;-76
2021/10/15 09:12:06;;;;;;;;;42.25;36.75;;;;;;;;5017359;28;45221;-75
2021/10/15 09:14:34;;;;;;;;;42.25;36.50;;;;;;;;5017480;28;45438;-73
2021/10/15 09:17:02;;;;;;;;;35.25;31.25;;;;;;;;5017402;28;45387;-74
2021/10/15 09:19:28;;;;;;;;;37.00;33.00;;;;;;;;5017758;28;45330;-77
2021/10/15 09:22:03;;;;;;;;;33.50;28.25;;;;;;;;5016383;28;45570;-77
2021/10/15 09:24:32;;;;;;;;;26.00;24.50;;;;;;;;5018127;28;46248;-72
2021/10/15 09:26:57;;;;;;;;;32.25;25.75;;;;;;;;5017964;28;45410;-74
2021/10/15 09:29:24;;;;;;;;;31.50;26.75;;;;;;;;5017928;28;45403;-74
2021/10/15 09:31:49;;;;;;;;;46.50;36.50;;;;;;;;5016515;28;45321;-74
2021/10/15 09:34:14;;;;;;;;;33.25;30.25;;;;;;;;5015988;28;47709;-72
2021/10/15 09:36:46;;;;;;;;;28.00;26.00;;;;;;;;5017103;28;45364;-76
2021/10/15 09:39:27;;;;;;;;;31.00;27.50;;;;;;;;5017574;28;45315;-73
2021/10/15 09:41:53;;;;;;;;;31.25;29.00;;;;;;;;5017686;28;45234;-72
2021/10/15 09:44:29;;;;;;;;;34.50;28.75;;;;;;;;5017630;28;45572;-70
2021/10/15 09:47:13;;;;;;;;;33.25;30.00;;;;;;;;5017837;28;45337;-72
2021/10/15 09:49:45;;;;;;;;;32.00;28.25;;;;;;;;5018191;28;45184;-78
2021/10/15 09:52:21;;;;;;;;;29.75;26.75;;;;;;;;5017738;28;45445;-75
2021/10/15 09:54:53;;;;;;;;;32.75;29.00;;;;;;;;5017630;28;45666;-77
2021/10/15 09:57:26;;;;;;;;;29.75;24.25;;;;;;;;5017628;28;45329;-74
2021/10/15 09:59:52;;;;;;;;;31.00;27.75;;;;;;;;5017233;28;45379;-74
2021/10/15 10:02:17;;;;;;;;;30.25;27.25;;;;;;;;5017537;28;45445;-78
2021/10/15 10:04:43;;;;;;;;;29.25;25.75;;;;;;;;5016142;28;46979;-77
2021/10/15 10:07:08;;;;;;;;;32.75;28.00;;;;;;;;5017741;28;45449;-78
2021/10/15 10:09:34;;;;;;;;;34.00;29.50;;;;;;;;5016520;28;45444;-74
2021/10/15 10:11:59;;;;;;;;;31.50;25.75;;;;;;;;5018511;28;45514;-77
2021/10/15 10:14:25;;;;;;;;;25.00;22.50;;;;;;;;5017583;28;45506;-76
2021/10/15 10:16:52;;;;;;;;;25.00;22.00;;;;;;;;5016052;28;45451;-77
2021/10/15 10:19:20;;;;;;;;;25.00;21.50;;;;;;;;5017685;28;45232;-73
2021/10/15 10:21:46;;;;;;;;;33.50;28.25;;;;;;;;5017369;28;45625;-77
2021/10/15 10:24:14;;;;;;;;;27.50;25.75;;;;;;;;5016941;28;46382;-75
2021/10/15 10:26:43;;;;;;;;;43.25;34.00;;;;;;;;5016798;28;45422;-74
2021/10/15 10:29:09;;;;;;;;;38.25;30.25;;;;;;;;5014793;28;45300;-79
2021/10/15 10:31:35;;;;;;;;;30.50;28.00;;;;;;;;5015596;28;45515;-76
2021/10/15 10:34:04;;;;;;;;;30.75;27.25;;;;;;;;5017180;28;46222;-77
2021/10/15 10:36:31;;;;;;;;;40.75;31.00;;;;;;;;5017321;28;45437;-78
2021/10/15 10:38:56;;;;;;;;;37.25;32.75;;;;;;;;5016950;28;45348;-74
2021/10/15 10:41:28;;;;;;;;;36.50;32.00;;;;;;;;5016781;28;45275;-72
2021/10/15 10:43:53;;;;;;;;;42.00;30.75;;;;;;;;5016412;28;45476;-75
2021/10/15 10:46:23;;;;;;;;;35.75;30.00;;;;;;;;5016789;28;45419;-78
2021/10/15 10:48:48;;;;;;;;;53.50;43.50;;;;;;;;5015537;28;45281;-74
2021/10/15 10:51:14;;;;;;;;;41.75;35.25;;;;;;;;5017342;28;45319;-73
2021/10/15 10:53:58;;;;;;;;;41.00;33.75;;;;;;;;5016496;28;46591;-71
2021/10/15 10:56:38;;;;;;;;;35.25;30.25;;;;;;;;5016405;28;45442;-75
2021/10/15 10:59:16;;;;;;;;;37.75;32.50;;;;;;;;5016570;28;45328;-72
2021/10/15 11:01:48;;;;;;;;;37.75;32.75;;;;;;;;5015905;28;45349;-72
2021/10/15 11:04:27;;;;;;;;;37.00;32.25;;;;;;;;5015636;28;46609;-73
2021/10/15 11:06:58;;;;;;;;;37.50;31.50;;;;;;;;5017690;28;45244;-72
2021/10/15 11:09:28;;;;;;;;;38.50;31.00;;;;;;;;5016770;28;46150;-70
2021/10/15 11:11:53;;;;;;;;;39.25;32.25;;;;;;;;5015494;28;45319;-71
2021/10/15 11:14:45;;;;;;;;;28.00;26.25;;;;;;;;5014417;28;46265;-75
2021/10/15 11:17:11;;;;;;;;;33.25;31.00;;;;;;;;5014357;28;45364;-70
2021/10/15 11:19:36;;;;;;;;;27.75;25.00;;;;;;;;5015480;28;45182;-73
2021/10/15 11:22:01;;;;;;;;;30.25;27.00;;;;;;;;5017736;28;45216;-72
2021/10/15 11:24:27;;;;;;;;;32.50;28.50;;;;;;;;5019931;28;45216;-71
2021/10/15 11:26:52;;;;;;;;;19.75;15.00;;;;;;;;5020464;28;45367;-72
2021/10/15 11:29:17;;;;;;;;;23.25;22.00;;;;;;;;5017915;28;45303;-72
2021/10/15 11:31:51;;;;;;;;;25.00;24.00;;;;;;;;5016749;28;45326;-75
2021/10/15 11:34:16;;;;;;;;;27.75;26.00;;;;;;;;5015808;28;46359;-74
2021/10/15 11:36:42;;;;;;;;;32.00;27.25;;;;;;;;5015832;28;45196;-75
2021/10/15 11:39:07;;;;;;;;;36.75;33.25;;;;;;;;5015294;28;45315;-74
2021/10/15 11:41:32;;;;;;;;;31.00;26.00;;;;;;;;5016128;28;45472;-74
2021/10/15 11:43:57;;;;;;;;;28.00;26.00;;;;;;;;5015707;28;46293;-73
2021/10/15 11:46:25;;;;;;;;;31.25;25.00;;;;;;;;5016054;28;45351;-75
2021/10/15 11:48:52;;;;;;;;;29.50;26.00;;;;;;;;5016210;28;45336;-73
2021/10/15 11:51:18;;;;;;;;;35.75;31.00;;;;;;;;5016515;28;45274;-75
2021/10/15 11:53:46;;;;;;;;;31.75;24.50;;;;;;;;5015230;28;46395;-75
2021/10/15 11:56:20;;;;;;;;;26.50;24.00;;;;;;;;5014130;28;45178;-76
2021/10/15 11:58:45;;;;;;;;;31.00;27.25;;;;;;;;5015847;28;45411;-74
2021/10/15 12:01:19;;;;;;;;;33.50;28.50;;;;;;;;5015774;28;45224;-69
2021/10/15 12:03:51;;;;;;;;;28.25;25.75;;;;;;;;5013817;28;47907;-75
2021/10/15 12:06:19;;;;;;;;;27.25;26.25;;;;;;;;5014246;28;45373;-72
2021/10/15 12:08:46;;;;;;;;;35.00;26.00;;;;;;;;5015347;28;45466;-73
2021/10/15 12:11:33;;;;;;;;;21.25;21.25;;;;;;;;5015337;28;45482;-73
2021/10/15 12:14:00;;;;;;;;;27.25;26.50;;;;;;;;4994169;28;46190;-76
2021/10/15 12:16:27;;;;;;;;;26.50;23.50;;;;;;;;5013748;28;45540;-76
2021/10/15 12:19:00;;;;;;;;;26.75;24.75;;;;;;;;5015131;28;46067;-78
2021/10/15 12:21:29;;;;;;;;;35.00;27.00;;;;;;;;5015467;28;45506;-73
2021/10/15 12:23:55;;;;;;;;;26.25;25.00;;;;;;;;5014979;28;46483;-76
2021/10/15 12:26:21;;;;;;;;;36.00;31.00;;;;;;;;5014794;28;45491;-78
2021/10/15 12:28:46;;;;;;;;;18.50;18.00;;;;;;;;5015067;28;45409;-74
2021/10/15 12:31:27;;;;;;;;;25.25;23.00;;;;;;;;5015431;28;45548;-75
2021/10/15 12:34:05;;;;;;;;;24.00;21.25;;;;;;;;5014811;28;46409;-75
2021/10/15 12:36:30;;;;;;;;;22.75;19.00;;;;;;;;5013342;28;45351;-72
2021/10/15 12:39:15;;;;;;;;;18.25;16.00;;;;;;;;5012851;28;45409;-73
2021/10/15 12:41:41;;;;;;;;;23.25;23.00;;;;;;;;5013438;28;45316;-78
2021/10/15 12:44:18;;;;;;;;;17.25;15.25;;;;;;;;5013372;28;47278;-78
2021/10/15 12:47:00;;;;;;;;;18.75;17.75;;;;;;;;5014724;28;45382;-75
2021/10/15 12:49:26;;;;;;;;;17.75;17.50;;;;;;;;5014584;28;45408;-78
2021/10/15 12:51:52;;;;;;;;;23.50;19.25;;;;;;;;5015776;28;45414;-75
2021/10/15 12:54:36;;;;;;;;;19.00;18.75;;;;;;;;5016772;28;47264;-73
2021/10/15 12:57:11;;;;;;;;;19.75;18.00;;;;;;;;5019001;28;45197;-76
2021/10/15 12:59:37;;;;;;;;;15.75;15.25;;;;;;;;5019980;28;45475;-74
2021/10/15 13:02:06;;;;;;;;;24.25;18.50;;;;;;;;5019111;28;45637;-71
2021/10/15 13:04:33;;;;;;;;;19.50;19.50;;;;;;;;5018348;28;46172;-72
2021/10/15 13:06:58;;;;;;;;;35.25;31.00;;;;;;;;5017361;28;45377;-73
2021/10/15 13:09:24;;;;;;;;;38.25;33.00;;;;;;;;5018700;28;45367;-70
2021/10/15 13:11:49;;;;;;;;;22.00;20.50;;;;;;;;5019258;28;45504;-71
2021/10/15 13:14:14;;;;;;;;;17.75;14.50;;;;;;;;5017300;28;47776;-73
2021/10/15 13:16:39;;;;;;;;;18.00;15.50;;;;;;;;5018809;28;45435;-74
2021/10/15 13:19:05;;;;;;;;;22.50;18.75;;;;;;;;5018374;28;45373;-74
2021/10/15 13:21:31;;;;;;;;;20.00;19.00;;;;;;;;5017007;28;45420;-75
2021/10/15 13:23:56;;;;;;;;;18.75;16.25;;;;;;;;5017472;28;46458;-71
2021/10/15 13:26:21;;;;;;;;;16.50;16.50;;;;;;;;5017601;28;45344;-75
2021/10/15 13:28:46;;;;;;;;;16.25;13.25;;;;;;;;5017362;28;45779;-73
2021/10/15 13:31:12;;;;;;;;;18.75;16.25;;;;;;;;5016394;28;45407;-75
2021/10/15 13:33:37;;;;;;;;;19.25;16.50;;;;;;;;5017675;28;45621;-73
2021/10/15 13:36:02;;;;;;;;;17.25;14.25;;;;;;;;5017478;28;45382;-72
2021/10/15 13:38:29;;;;;;;;;13.75;12.00;;;;;;;;5017627;28;45331;-73
2021/10/15 13:41:09;;;;;;;;;13.75;12.00;;;;;;;;5017848;28;45331;-73
2021/10/15 13:43:44;;;;;;;;;13.75;13.25;;;;;;;;5017401;28;46534;-74
2021/10/15 13:51:21;;;;;;;;;13.25;10.50;;;;;;;;5017834;28;45433;-72
2021/10/15 13:53:47;;;;;;;;;17.75;13.25;;;;;;;;5017132;28;46066;-76
2021/10/15 13:56:13;;;;;;;;;15.25;12.50;;;;;;;;5016802;28;45436;-71
2021/10/15 13:58:44;;;;;;;;;12.50;11.50;;;;;;;;5015787;28;45325;-74
2021/10/15 14:01:15;;;;;;;;;13.75;13.75;;;;;;;;5017952;28;45374;-75
2021/10/15 14:06:26;;;;;;;;;26.75;24.50;;;;;;;;4985029;28;45451;-73
2021/10/15 14:08:51;;;;;;;;;17.00;14.25;;;;;;;;5015323;28;45343;-76
2021/10/15 14:11:18;;;;;;;;;11.00;11.00;;;;;;;;5017647;28;45404;-75
2021/10/15 14:13:43;;;;;;;;;6.50;6.25;;;;;;;;5016742;28;45523;-68
2021/10/15 14:16:09;;;;;;;;;9.25;8.25;;;;;;;;5016754;28;45308;-75
2021/10/15 14:18:34;;;;;;;;;13.00;10.50;;;;;;;;5015263;28;45363;-75
2021/10/15 14:20:59;;;;;;;;;7.50;7.00;;;;;;;;5016901;28;45330;-74
2021/10/15 14:23:27;;;;;;;;;16.00;13.75;;;;;;;;5016399;28;45356;-74
2021/10/15 14:25:53;;;;;;;;;8.25;7.75;;;;;;;;5016486;28;45153;-73
2021/10/15 14:28:19;;;;;;;;;6.25;6.25;;;;;;;;5016883;28;45279;-74
2021/10/15 14:30:45;;;;;;;;;11.25;9.00;;;;;;;;5015634;28;45266;-73
2021/10/15 14:33:10;;;;;;;;;9.75;7.25;;;;;;;;5017283;28;45329;-71
2021/10/15 14:35:36;;;;;;;;;11.75;8.75;;;;;;;;5017215;28;45431;-76
2021/10/15 14:38:02;;;;;;;;;12.50;9.25;;;;;;;;5015046;28;45444;-74
2021/10/15 14:40:28;;;;;;;;;13.25;11.50;;;;;;;;5016562;28;45514;-74